createdAt,value
2022-11-13T00:02:47.895Z,15.02
2022-11-13T00:08:54.929Z,14.13
2022-11-13T00:14:59.692Z,14.23
2022-11-13T00:21:06.813Z,16.65
2022-11-13T00:27:10.393Z,15.05
2022-11-13T00:33:26.398Z,15.18
2022-11-13T00:39:38.712Z,15.32
2022-11-13T00:45:42.048Z,14.60
2022-11-13T00:51:46.869Z,15.63
2022-11-13T00:57:50.271Z,14.65
2022-11-13T01:03:53.622Z,12.63
2022-11-13T01:09:59.816Z,13.23
2022-11-13T01:16:06.746Z,14.63
2022-11-13T01:22:10.143Z,14.85
2022-11-13T01:28:14.813Z,16.17
2022-11-13T01:34:18.710Z,14.35
2022-11-13T01:40:22.219Z,13.55
2022-11-13T01:46:30.994Z,14.13
2022-11-13T01:52:38.254Z,13.98
2022-11-13T01:58:42.833Z,15.10
2022-11-13T02:04:48.285Z,15.05
2022-11-13T02:10:51.868Z,14.00
2022-11-13T02:16:57.345Z,14.75
2022-11-13T02:23:04.924Z,15.57
2022-11-13T02:29:09.927Z,14.55
2022-11-13T02:35:13.469Z,14.55
2022-11-13T02:41:16.861Z,13.93
2022-11-13T02:47:22.786Z,13.50
2022-11-13T02:53:26.213Z,13.20
2022-11-13T02:59:29.815Z,14.23
2022-11-13T03:05:34.490Z,12.60
2022-11-13T03:11:37.892Z,12.95
2022-11-13T03:17:41.678Z,13.13
2022-11-13T03:23:46.530Z,13.48
2022-11-13T03:29:50.134Z,14.20
2022-11-13T03:35:53.457Z,12.32
2022-11-13T03:41:58.171Z,14.05
2022-11-13T03:48:01.989Z,15.70
2022-11-13T03:54:05.698Z,14.32
2022-11-13T04:00:11.410Z,14.32
2022-11-13T04:06:15.572Z,14.35
2022-11-13T04:12:19.089Z,13.73
2022-11-13T04:18:23.847Z,13.00
2022-11-13T04:24:27.858Z,13.43
2022-11-13T04:30:31.261Z,13.68
2022-11-13T04:36:36.097Z,13.52
2022-11-13T04:42:51.439Z,14.00
2022-11-13T04:48:54.754Z,13.50
2022-11-13T04:55:00.082Z,13.48
2022-11-13T05:01:04.153Z,13.52
2022-11-13T05:07:07.572Z,14.10
2022-11-13T05:13:12.737Z,13.95
2022-11-13T05:19:16.166Z,14.13
2022-11-13T05:25:19.595Z,12.38
2022-11-13T05:31:24.273Z,14.10
2022-11-13T05:37:27.587Z,13.57
2022-11-13T05:43:30.946Z,12.73
2022-11-13T05:49:35.892Z,13.68
2022-11-13T05:55:39.249Z,13.65
2022-11-13T06:01:43.004Z,13.25
2022-11-13T06:07:51.006Z,12.68
2022-11-13T06:13:55.188Z,19.58
2022-11-13T06:19:58.769Z,15.40
2022-11-13T06:26:04.051Z,14.45
2022-11-13T06:32:07.715Z,13.07
2022-11-13T06:38:11.090Z,13.23
2022-11-13T06:44:15.801Z,12.98
2022-11-13T06:50:19.120Z,13.18
2022-11-13T06:56:23.176Z,14.27
2022-11-13T07:02:27.894Z,16.73
2022-11-13T07:08:31.683Z,14.98
2022-11-13T07:14:35.409Z,15.20
2022-11-13T07:20:40.217Z,15.32
2022-11-13T07:26:43.557Z,15.88
2022-11-13T07:32:47.122Z,15.85
2022-11-13T07:38:57.872Z,15.98
2022-11-13T07:45:03.419Z,16.73
2022-11-13T07:51:07.004Z,14.18
2022-11-13T07:57:11.718Z,13.90
2022-11-13T08:03:16.010Z,13.63
2022-11-13T08:09:19.433Z,16.38
2022-11-13T08:15:24.340Z,16.23
2022-11-13T08:21:27.719Z,16.40
2022-11-13T08:27:31.073Z,17.20
2022-11-13T08:33:36.059Z,16.45
2022-11-13T08:39:39.404Z,15.23
2022-11-13T08:45:42.955Z,16.02
2022-11-13T08:51:47.681Z,17.20
2022-11-13T08:57:51.027Z,17.85
2022-11-13T09:03:54.397Z,18.58
2022-11-13T09:09:59.269Z,18.60
2022-11-13T09:16:03.019Z,19.50
2022-11-13T09:22:06.365Z,29.83
2022-11-13T09:28:11.688Z,18.50
2022-11-13T09:34:15.094Z,19.65
2022-11-13T09:40:25.076Z,29.08
2022-11-13T09:46:34.491Z,21.70
2022-11-13T09:52:39.249Z,22.10
2022-11-13T09:58:47.222Z,20.75
2022-11-13T10:04:57.836Z,20.17
2022-11-13T10:11:04.129Z,20.65
2022-11-13T10:17:10.384Z,19.52
2022-11-13T10:23:17.467Z,21.85
2022-11-13T10:29:21.912Z,21.23
2022-11-13T10:35:33.624Z,23.52
2022-11-13T10:41:48.310Z,24.23
2022-11-13T10:48:08.186Z,24.48
2022-11-13T10:54:22.428Z,24.40
2022-11-13T11:00:29.067Z,25.02
2022-11-13T11:07:05.015Z,26.90
2022-11-13T11:13:03.159Z,26.85
2022-11-13T11:19:10.924Z,28.58
2022-11-13T11:25:15.935Z,29.83
2022-11-13T11:31:22.614Z,28.85
2022-11-13T11:37:29.233Z,27.38
2022-11-13T11:43:40.791Z,28.33
2022-11-13T11:49:45.171Z,28.17
2022-11-13T11:56:03.702Z,29.15
2022-11-13T12:02:22.636Z,30.23
2022-11-13T12:08:30.684Z,29.42
2022-11-13T12:14:40.719Z,29.90
2022-11-13T12:20:46.084Z,29.70
2022-11-13T12:26:53.893Z,29.77
2022-11-13T12:33:04.902Z,28.95
2022-11-13T12:39:14.816Z,27.15
2022-11-13T12:45:21.348Z,28.38
2022-11-13T12:51:26.054Z,25.60
2022-11-13T12:57:30.884Z,30.80
2022-11-13T13:03:49.199Z,28.67
2022-11-13T13:10:00.371Z,31.20
2022-11-13T13:16:04.726Z,42.17
2022-11-13T13:22:11.857Z,48.25
2022-11-13T13:28:21.565Z,37.83
2022-11-13T13:34:35.065Z,31.08
2022-11-13T13:40:40.364Z,29.67
2022-11-13T13:46:45.111Z,24.00
2022-11-13T13:52:55.300Z,24.40
2022-11-13T13:58:59.924Z,23.63
2022-11-13T14:05:05.446Z,21.23
2022-11-13T14:11:18.152Z,18.27
2022-11-13T14:17:24.734Z,16.15
2022-11-13T14:23:31.241Z,15.00
2022-11-13T14:29:36.750Z,15.88
2022-11-13T14:35:40.528Z,15.68
2022-11-13T14:41:53.150Z,15.05
2022-11-13T14:48:00.191Z,16.10
2022-11-13T14:54:07.827Z,17.05
2022-11-13T15:00:14.966Z,16.98
2022-11-13T15:06:19.946Z,17.15
2022-11-13T15:12:23.556Z,15.85
2022-11-13T15:18:28.340Z,16.35
2022-11-13T15:24:31.661Z,16.33
2022-11-13T15:30:35.008Z,16.92
2022-11-13T15:36:39.764Z,17.40
2022-11-13T15:42:43.822Z,18.70
2022-11-13T15:48:47.448Z,18.27
2022-11-13T15:54:52.614Z,18.80
2022-11-13T16:00:56.006Z,19.38
2022-11-13T16:06:59.432Z,18.42
2022-11-13T16:13:04.637Z,22.35
2022-11-13T16:19:11.955Z,24.10
2022-11-13T16:25:16.410Z,19.65
2022-11-13T16:31:23.029Z,20.90
2022-11-13T16:37:27.027Z,22.08
2022-11-13T16:43:30.977Z,20.80
2022-11-13T16:49:35.916Z,20.88
2022-11-13T16:55:39.520Z,21.73
2022-11-13T17:01:43.056Z,21.17
2022-11-13T17:07:47.919Z,21.85
2022-11-13T17:13:51.783Z,21.80
2022-11-13T17:19:55.522Z,22.63
2022-11-13T17:26:00.291Z,21.45
2022-11-13T17:32:03.998Z,23.75
2022-11-13T17:38:07.392Z,21.88
2022-11-13T17:44:12.204Z,24.17
2022-11-13T17:50:16.276Z,23.27
2022-11-13T17:56:20.231Z,22.67
2022-11-13T18:02:24.994Z,26.13
2022-11-13T18:08:28.473Z,21.48
2022-11-13T18:14:31.875Z,21.02
2022-11-13T18:20:37.276Z,23.20
2022-11-13T18:26:40.824Z,21.65
2022-11-13T18:32:44.304Z,22.75
2022-11-13T18:38:49.305Z,23.05
2022-11-13T18:44:53.092Z,23.73
2022-11-13T18:50:57.228Z,24.10
2022-11-13T18:57:03.033Z,22.80
2022-11-13T19:03:06.428Z,24.00
2022-11-13T19:09:12.059Z,22.60
2022-11-13T19:15:16.874Z,30.65
2022-11-13T19:21:20.731Z,27.98
2022-11-13T19:27:24.329Z,21.58
2022-11-13T19:33:29.514Z,20.17
2022-11-13T19:39:33.065Z,20.90
2022-11-13T19:45:37.515Z,22.98
2022-11-13T19:51:42.461Z,22.95
2022-11-13T19:57:46.381Z,20.63
2022-11-13T20:03:49.897Z,20.73
2022-11-13T20:09:54.905Z,20.00
2022-11-13T20:15:58.351Z,19.13
2022-11-13T20:22:01.743Z,21.08
2022-11-13T20:28:07.153Z,24.27
2022-11-13T20:34:10.758Z,19.48
2022-11-13T20:40:14.212Z,19.73
2022-11-13T20:46:19.822Z,17.73
2022-11-13T20:52:23.197Z,19.23
2022-11-13T20:58:26.960Z,18.08
2022-11-13T21:04:32.035Z,19.25
2022-11-13T21:10:35.698Z,16.92
2022-11-13T21:16:39.178Z,15.70
2022-11-13T21:22:43.930Z,16.17
2022-11-13T21:28:47.298Z,16.73
2022-11-13T21:34:53.862Z,14.90
2022-11-13T21:41:19.356Z,17.52
2022-11-13T21:47:22.817Z,17.45
2022-11-13T21:53:26.224Z,19.15
2022-11-13T21:59:31.815Z,19.73
2022-11-13T22:05:35.158Z,22.10
2022-11-13T22:11:38.943Z,27.05
2022-11-13T22:17:43.644Z,25.83
2022-11-13T22:23:47.091Z,23.02
2022-11-13T22:29:50.481Z,20.42
2022-11-13T22:35:55.203Z,22.15
2022-11-13T22:41:58.625Z,19.88
2022-11-13T22:48:02.017Z,18.45
2022-11-13T22:54:07.951Z,21.75
2022-11-13T23:00:12.206Z,39.38
2022-11-13T23:06:16.380Z,43.25
2022-11-13T23:12:22.291Z,29.02
2022-11-13T23:18:25.664Z,20.50
2022-11-13T23:24:28.975Z,16.73
2022-11-13T23:30:33.678Z,19.65
2022-11-13T23:36:36.999Z,21.52
2022-11-13T23:42:54.765Z,22.73
2022-11-13T23:49:00.469Z,22.40
2022-11-13T23:55:03.835Z,21.30
